sensor_id;sensor_type;location;lat;lon;timestamp;noise_LAeq;noise_LA_min;noise_LA_max;noise_LA01;noise_LA95
75037;Laerm;64247;51.540;5.854;2023-03-23T00:01:42;55.95;44.95;72.32;;
75037;Laerm;64247;51.540;5.854;2023-03-23T00:03:43;59.82;45.57;72.90;;
75037;Laerm;64247;51.540;5.854;2023-03-23T00:05:45;56.17;45.92;68.86;;
75037;Laerm;64247;51.540;5.854;2023-03-23T00:07:50;59.14;46.10;73.19;;
75037;Laerm;64247;51.540;5.854;2023-03-23T00:09:53;52.80;45.34;65.71;;
75037;Laerm;64247;51.540;5.854;2023-03-23T00:11:55;55.98;45.48;70.42;;
75037;Laerm;64247;51.540;5.854;2023-03-23T00:14:00;56.55;44.87;75.16;;
75037;Laerm;64247;51.540;5.854;2023-03-23T00:16:01;50.81;44.98;65.22;;
75037;Laerm;64247;51.540;5.854;2023-03-23T00:18:02;51.65;45.23;62.76;;
75037;Laerm;64247;51.540;5.854;2023-03-23T00:20:06;52.95;45.80;67.33;;
75037;Laerm;64247;51.540;5.854;2023-03-23T00:22:08;58.13;46.44;68.36;;
75037;Laerm;64247;51.540;5.854;2023-03-23T00:24:17;55.05;45.57;67.77;;
75037;Laerm;64247;51.540;5.854;2023-03-23T00:26:19;57.66;45.53;72.83;;
75037;Laerm;64247;51.540;5.854;2023-03-23T00:28:20;52.92;45.09;65.56;;
75037;Laerm;64247;51.540;5.854;2023-03-23T00:30:27;58.16;45.86;69.35;;
75037;Laerm;64247;51.540;5.854;2023-03-23T00:32:28;54.34;45.35;67.01;;
75037;Laerm;64247;51.540;5.854;2023-03-23T00:34:29;60.36;45.56;75.15;;
75037;Laerm;64247;51.540;5.854;2023-03-23T00:36:34;54.35;45.56;65.22;;
75037;Laerm;64247;51.540;5.854;2023-03-23T00:38:38;54.69;45.56;67.01;;
75037;Laerm;64247;51.540;5.854;2023-03-23T00:40:39;52.29;45.31;63.34;;
75037;Laerm;64247;51.540;5.854;2023-03-23T00:42:40;56.03;45.46;68.03;;
75037;Laerm;64247;51.540;5.854;2023-03-23T00:44:41;60.91;45.79;76.39;;
75037;Laerm;64247;51.540;5.854;2023-03-23T00:46:43;58.49;45.12;73.25;;
75037;Laerm;64247;51.540;5.854;2023-03-23T00:48:49;53.28;44.83;66.56;;
75037;Laerm;64247;51.540;5.854;2023-03-23T00:50:51;53.44;45.36;69.91;;
75037;Laerm;64247;51.540;5.854;2023-03-23T00:52:52;51.45;45.32;61.51;;
75037;Laerm;64247;51.540;5.854;2023-03-23T00:54:56;52.17;44.40;69.32;;
75037;Laerm;64247;51.540;5.854;2023-03-23T00:56:57;51.55;45.08;66.00;;
75037;Laerm;64247;51.540;5.854;2023-03-23T00:58:58;49.81;44.70;61.17;;
75037;Laerm;64247;51.540;5.854;2023-03-23T01:00:59;55.78;45.68;70.66;;
75037;Laerm;64247;51.540;5.854;2023-03-23T01:03:00;51.88;45.40;64.21;;
75037;Laerm;64247;51.540;5.854;2023-03-23T01:05:00;51.00;45.14;67.90;;
75037;Laerm;64247;51.540;5.854;2023-03-23T01:07:03;54.33;45.19;67.14;;
75037;Laerm;64247;51.540;5.854;2023-03-23T01:09:14;49.50;45.09;62.05;;
75037;Laerm;64247;51.540;5.854;2023-03-23T01:11:17;48.13;45.11;57.93;;
75037;Laerm;64247;51.540;5.854;2023-03-23T01:13:18;55.25;45.28;68.54;;
75037;Laerm;64247;51.540;5.854;2023-03-23T01:15:21;57.99;45.09;74.64;;
75037;Laerm;64247;51.540;5.854;2023-03-23T01:17:22;52.73;45.52;65.40;;
75037;Laerm;64247;51.540;5.854;2023-03-23T01:19:23;50.86;45.22;61.06;;
75037;Laerm;64247;51.540;5.854;2023-03-23T01:21:24;51.64;45.04;64.45;;
75037;Laerm;64247;51.540;5.854;2023-03-23T01:23:25;54.49;45.28;68.97;;
75037;Laerm;64247;51.540;5.854;2023-03-23T01:25:34;62.31;46.26;77.15;;
75037;Laerm;64247;51.540;5.854;2023-03-23T01:27:36;61.34;46.15;91.90;;
75037;Laerm;64247;51.540;5.854;2023-03-23T01:29:37;60.20;46.47;87.32;;
75037;Laerm;64247;51.540;5.854;2023-03-23T01:31:38;61.79;46.27;83.34;;
75037;Laerm;64247;51.540;5.854;2023-03-23T01:33:42;54.13;45.66;71.94;;
75037;Laerm;64247;51.540;5.854;2023-03-23T01:35:43;58.14;44.66;74.68;;
75037;Laerm;64247;51.540;5.854;2023-03-23T01:37:44;62.25;45.81;75.47;;
75037;Laerm;64247;51.540;5.854;2023-03-23T01:39:46;56.73;45.94;67.80;;
75037;Laerm;64247;51.540;5.854;2023-03-23T01:41:47;58.92;45.40;72.37;;
75037;Laerm;64247;51.540;5.854;2023-03-23T01:46:58;58.22;46.84;71.69;;
75037;Laerm;64247;51.540;5.854;2023-03-23T01:49:12;54.70;45.53;69.59;;
75037;Laerm;64247;51.540;5.854;2023-03-23T01:51:19;57.96;45.71;74.68;;
75037;Laerm;64247;51.540;5.854;2023-03-23T01:53:31;58.61;44.75;72.38;;
75037;Laerm;64247;51.540;5.854;2023-03-23T01:55:36;57.35;45.87;67.29;;
75037;Laerm;64247;51.540;5.854;2023-03-23T01:57:39;59.45;46.09;77.05;;
75037;Laerm;64247;51.540;5.854;2023-03-23T01:59:44;57.38;45.24;70.64;;
75037;Laerm;64247;51.540;5.854;2023-03-23T02:01:54;53.39;45.51;64.88;;
75037;Laerm;64247;51.540;5.854;2023-03-23T02:03:57;57.68;45.31;70.84;;
75037;Laerm;64247;51.540;5.854;2023-03-23T02:05:58;55.01;45.45;69.39;;
75037;Laerm;64247;51.540;5.854;2023-03-23T02:08:22;62.23;45.48;74.30;;
75037;Laerm;64247;51.540;5.854;2023-03-23T02:10:23;62.56;45.65;77.95;;
75037;Laerm;64247;51.540;5.854;2023-03-23T02:12:24;58.66;45.81;72.24;;
75037;Laerm;64247;51.540;5.854;2023-03-23T02:14:28;59.00;45.25;72.36;;
75037;Laerm;64247;51.540;5.854;2023-03-23T02:34:50;55.21;45.56;67.92;;
75037;Laerm;64247;51.540;5.854;2023-03-23T02:39:53;61.51;46.23;75.44;;
75037;Laerm;64247;51.540;5.854;2023-03-23T02:42:12;56.07;45.37;70.39;;
75037;Laerm;64247;51.540;5.854;2023-03-23T02:44:54;59.45;46.31;74.42;;
75037;Laerm;64247;51.540;5.854;2023-03-23T02:46:59;59.79;45.57;72.31;;
75037;Laerm;64247;51.540;5.854;2023-03-23T02:49:03;58.61;45.66;70.15;;
75037;Laerm;64247;51.540;5.854;2023-03-23T02:51:10;63.67;46.89;77.42;;
75037;Laerm;64247;51.540;5.854;2023-03-23T02:53:16;68.14;47.44;84.48;;
75037;Laerm;64247;51.540;5.854;2023-03-23T02:55:21;61.54;46.90;72.98;;
75037;Laerm;64247;51.540;5.854;2023-03-23T02:57:27;63.61;45.26;77.18;;
75037;Laerm;64247;51.540;5.854;2023-03-23T02:59:30;65.39;46.64;80.08;;
75037;Laerm;64247;51.540;5.854;2023-03-23T03:04:25;65.79;47.30;77.06;;
75037;Laerm;64247;51.540;5.854;2023-03-23T03:06:52;62.66;45.97;74.43;;
75037;Laerm;64247;51.540;5.854;2023-03-23T03:09:29;60.84;45.91;73.82;;
75037;Laerm;64247;51.540;5.854;2023-03-23T03:11:37;63.32;46.43;76.71;;
75037;Laerm;64247;51.540;5.854;2023-03-23T03:14:08;58.72;46.30;69.85;;
75037;Laerm;64247;51.540;5.854;2023-03-23T03:16:45;61.64;46.60;76.44;;
75037;Laerm;64247;51.540;5.854;2023-03-23T03:21:33;57.28;45.63;72.87;;
75037;Laerm;64247;51.540;5.854;2023-03-23T03:23:38;62.03;46.05;75.38;;
75037;Laerm;64247;51.540;5.854;2023-03-23T03:25:43;57.84;46.63;73.62;;
75037;Laerm;64247;51.540;5.854;2023-03-23T03:27:49;63.69;46.15;79.16;;
75037;Laerm;64247;51.540;5.854;2023-03-23T03:30:03;62.09;46.92;74.35;;
75037;Laerm;64247;51.540;5.854;2023-03-23T03:32:09;59.30;45.12;72.39;;
75037;Laerm;64247;51.540;5.854;2023-03-23T03:34:14;65.05;47.20;79.75;;
75037;Laerm;64247;51.540;5.854;2023-03-23T03:36:26;60.92;46.12;75.83;;
75037;Laerm;64247;51.540;5.854;2023-03-23T03:38:28;66.12;47.91;82.46;;
75037;Laerm;64247;51.540;5.854;2023-03-23T03:40:29;64.31;47.16;75.25;;
75037;Laerm;64247;51.540;5.854;2023-03-23T03:42:30;60.89;46.07;78.14;;
75037;Laerm;64247;51.540;5.854;2023-03-23T03:44:33;56.24;47.73;66.32;;
75037;Laerm;64247;51.540;5.854;2023-03-23T03:46:35;59.84;47.64;72.67;;
75037;Laerm;64247;51.540;5.854;2023-03-23T03:48:36;60.55;46.21;76.01;;
75037;Laerm;64247;51.540;5.854;2023-03-23T03:50:38;59.07;48.34;71.69;;
75037;Laerm;64247;51.540;5.854;2023-03-23T03:52:39;56.63;46.06;70.95;;
75037;Laerm;64247;51.540;5.854;2023-03-23T03:54:41;58.55;46.16;71.20;;
75037;Laerm;64247;51.540;5.854;2023-03-23T03:56:42;56.53;46.00;67.53;;
75037;Laerm;64247;51.540;5.854;2023-03-23T03:59:02;60.72;45.93;76.03;;
75037;Laerm;64247;51.540;5.854;2023-03-23T04:01:23;60.39;48.81;72.79;;
75037;Laerm;64247;51.540;5.854;2023-03-23T04:03:26;55.61;46.63;65.41;;
75037;Laerm;64247;51.540;5.854;2023-03-23T04:05:51;59.58;45.91;70.77;;
75037;Laerm;64247;51.540;5.854;2023-03-23T04:07:51;60.57;47.20;72.85;;
75037;Laerm;64247;51.540;5.854;2023-03-23T04:09:54;62.90;48.22;75.37;;
75037;Laerm;64247;51.540;5.854;2023-03-23T04:11:55;57.06;48.40;67.82;;
75037;Laerm;64247;51.540;5.854;2023-03-23T04:14:14;59.62;47.74;73.14;;
75037;Laerm;64247;51.540;5.854;2023-03-23T04:16:18;61.38;47.58;73.30;;
75037;Laerm;64247;51.540;5.854;2023-03-23T04:18:20;54.33;46.61;65.91;;
75037;Laerm;64247;51.540;5.854;2023-03-23T04:20:23;54.88;46.19;67.41;;
75037;Laerm;64247;51.540;5.854;2023-03-23T04:22:27;55.79;46.71;70.61;;
75037;Laerm;64247;51.540;5.854;2023-03-23T04:24:34;52.86;46.28;63.64;;
75037;Laerm;64247;51.540;5.854;2023-03-23T04:26:39;61.34;46.99;74.48;;
75037;Laerm;64247;51.540;5.854;2023-03-23T04:28:49;61.32;49.13;73.86;;
75037;Laerm;64247;51.540;5.854;2023-03-23T04:31:09;64.00;48.50;77.32;;
75037;Laerm;64247;51.540;5.854;2023-03-23T04:33:15;56.22;46.33;65.35;;
75037;Laerm;64247;51.540;5.854;2023-03-23T04:35:24;59.95;46.92;74.75;;
75037;Laerm;64247;51.540;5.854;2023-03-23T04:37:41;56.69;48.93;69.73;;
75037;Laerm;64247;51.540;5.854;2023-03-23T04:39:44;56.97;47.06;67.24;;
75037;Laerm;64247;51.540;5.854;2023-03-23T04:41:47;63.91;49.33;76.73;;
75037;Laerm;64247;51.540;5.854;2023-03-23T04:43:56;61.88;49.11;76.05;;
75037;Laerm;64247;51.540;5.854;2023-03-23T04:46:15;57.81;46.76;67.77;;
75037;Laerm;64247;51.540;5.854;2023-03-23T04:48:19;56.26;46.54;69.83;;
75037;Laerm;64247;51.540;5.854;2023-03-23T04:50:34;60.53;49.20;74.66;;
75037;Laerm;64247;51.540;5.854;2023-03-23T04:52:45;60.84;51.10;73.59;;
75037;Laerm;64247;51.540;5.854;2023-03-23T04:54:48;63.69;49.99;75.96;;
75037;Laerm;64247;51.540;5.854;2023-03-23T04:56:49;56.54;48.69;69.14;;
75037;Laerm;64247;51.540;5.854;2023-03-23T04:58:50;58.54;47.99;76.93;;
75037;Laerm;64247;51.540;5.854;2023-03-23T05:01:12;63.68;49.45;75.87;;
75037;Laerm;64247;51.540;5.854;2023-03-23T05:03:36;58.22;47.35;69.65;;
75037;Laerm;64247;51.540;5.854;2023-03-23T05:05:39;59.02;49.17;68.89;;
75037;Laerm;64247;51.540;5.854;2023-03-23T05:07:42;59.57;49.94;73.18;;
75037;Laerm;64247;51.540;5.854;2023-03-23T05:09:47;61.25;51.30;71.34;;
75037;Laerm;64247;51.540;5.854;2023-03-23T05:11:50;60.32;51.89;74.43;;
75037;Laerm;64247;51.540;5.854;2023-03-23T05:13:50;58.59;47.90;70.43;;
75037;Laerm;64247;51.540;5.854;2023-03-23T05:15:51;62.54;50.47;76.80;;
75037;Laerm;64247;51.540;5.854;2023-03-23T05:17:53;60.94;53.44;70.87;;
75037;Laerm;64247;51.540;5.854;2023-03-23T05:19:56;59.85;49.31;71.48;;
75037;Laerm;64247;51.540;5.854;2023-03-23T05:22:18;63.82;51.98;79.04;;
75037;Laerm;64247;51.540;5.854;2023-03-23T05:24:22;64.66;51.16;76.06;;
75037;Laerm;64247;51.540;5.854;2023-03-23T05:26:26;62.19;51.71;74.24;;
75037;Laerm;64247;51.540;5.854;2023-03-23T05:28:34;59.34;51.32;67.25;;
75037;Laerm;64247;51.540;5.854;2023-03-23T05:30:56;61.35;52.28;71.73;;
75037;Laerm;64247;51.540;5.854;2023-03-23T05:32:59;67.20;55.74;78.74;;
75037;Laerm;64247;51.540;5.854;2023-03-23T05:35:30;62.58;51.04;78.78;;
75037;Laerm;64247;51.540;5.854;2023-03-23T05:37:32;61.39;51.22;72.57;;
75037;Laerm;64247;51.540;5.854;2023-03-23T05:39:41;61.71;50.06;76.08;;
75037;Laerm;64247;51.540;5.854;2023-03-23T05:42:05;64.29;51.10;79.30;;
75037;Laerm;64247;51.540;5.854;2023-03-23T05:44:19;65.75;54.85;80.83;;
75037;Laerm;64247;51.540;5.854;2023-03-23T05:46:23;67.32;53.86;83.48;;
75037;Laerm;64247;51.540;5.854;2023-03-23T05:48:26;64.62;54.09;77.13;;
75037;Laerm;64247;51.540;5.854;2023-03-23T05:50:28;59.96;52.14;78.79;;
75037;Laerm;64247;51.540;5.854;2023-03-23T05:52:29;64.33;53.56;76.74;;
75037;Laerm;64247;51.540;5.854;2023-03-23T05:54:33;63.30;55.59;75.98;;
75037;Laerm;64247;51.540;5.854;2023-03-23T05:56:36;61.89;49.94;75.33;;
75037;Laerm;64247;51.540;5.854;2023-03-23T05:58:58;60.64;52.34;74.84;;
75037;Laerm;64247;51.540;5.854;2023-03-23T06:00:59;59.33;52.48;70.95;;
75037;Laerm;64247;51.540;5.854;2023-03-23T06:03:03;61.78;53.62;74.06;;
75037;Laerm;64247;51.540;5.854;2023-03-23T06:05:16;61.69;54.13;73.82;;
75037;Laerm;64247;51.540;5.854;2023-03-23T06:07:21;61.06;54.39;72.05;;
75037;Laerm;64247;51.540;5.854;2023-03-23T06:09:31;64.15;53.72;72.15;;
75037;Laerm;64247;51.540;5.854;2023-03-23T06:11:50;58.66;52.98;67.48;;
75037;Laerm;64247;51.540;5.854;2023-03-23T06:14:11;58.63;51.94;67.18;;
75037;Laerm;64247;51.540;5.854;2023-03-23T06:16:13;60.94;51.84;69.30;;
75037;Laerm;64247;51.540;5.854;2023-03-23T06:18:26;64.53;53.92;77.85;;
75037;Laerm;64247;51.540;5.854;2023-03-23T06:20:39;62.60;53.37;74.22;;
75037;Laerm;64247;51.540;5.854;2023-03-23T06:23:03;58.09;52.85;65.77;;
75037;Laerm;64247;51.540;5.854;2023-03-23T06:25:09;60.42;54.72;67.96;;
75037;Laerm;64247;51.540;5.854;2023-03-23T06:27:17;59.18;53.02;65.32;;
75037;Laerm;64247;51.540;5.854;2023-03-23T06:29:19;60.05;54.88;71.89;;
75037;Laerm;64247;51.540;5.854;2023-03-23T06:31:27;60.10;54.45;67.94;;
75037;Laerm;64247;51.540;5.854;2023-03-23T06:33:28;60.88;54.23;74.24;;
75037;Laerm;64247;51.540;5.854;2023-03-23T06:35:57;60.77;53.46;72.80;;
75037;Laerm;64247;51.540;5.854;2023-03-23T06:38:18;61.19;55.34;68.53;;
75037;Laerm;64247;51.540;5.854;2023-03-23T06:40:27;59.14;53.13;68.25;;
75037;Laerm;64247;51.540;5.854;2023-03-23T06:42:30;61.10;54.85;73.49;;
75037;Laerm;64247;51.540;5.854;2023-03-23T06:44:58;60.45;55.14;71.15;;
75037;Laerm;64247;51.540;5.854;2023-03-23T06:47:01;59.09;53.51;65.29;;
75037;Laerm;64247;51.540;5.854;2023-03-23T06:49:07;62.13;52.89;70.95;;
75037;Laerm;64247;51.540;5.854;2023-03-23T06:51:17;61.05;52.97;70.90;;
75037;Laerm;64247;51.540;5.854;2023-03-23T06:53:23;58.92;53.70;72.30;;
75037;Laerm;64247;51.540;5.854;2023-03-23T06:55:25;61.09;54.21;71.64;;
75037;Laerm;64247;51.540;5.854;2023-03-23T06:57:28;62.34;53.50;75.62;;
75037;Laerm;64247;51.540;5.854;2023-03-23T06:59:30;63.47;54.14;74.24;;
75037;Laerm;64247;51.540;5.854;2023-03-23T07:01:31;64.11;54.70;76.78;;
75037;Laerm;64247;51.540;5.854;2023-03-23T07:03:37;63.69;51.72;75.25;;
75037;Laerm;64247;51.540;5.854;2023-03-23T07:05:39;65.53;55.05;77.71;;
75037;Laerm;64247;51.540;5.854;2023-03-23T07:07:40;58.27;51.36;69.63;;
75037;Laerm;64247;51.540;5.854;2023-03-23T07:09:51;64.13;53.88;76.61;;
75037;Laerm;64247;51.540;5.854;2023-03-23T07:11:55;61.77;53.52;79.53;;
75037;Laerm;64247;51.540;5.854;2023-03-23T07:14:04;60.90;53.60;71.14;;
75037;Laerm;64247;51.540;5.854;2023-03-23T07:16:06;60.40;53.96;82.51;;
75037;Laerm;64247;51.540;5.854;2023-03-23T07:18:08;63.91;54.20;84.10;;
75037;Laerm;64247;51.540;5.854;2023-03-23T07:20:14;65.60;54.79;89.13;;
75037;Laerm;64247;51.540;5.854;2023-03-23T07:22:16;61.73;54.06;81.26;;
75037;Laerm;64247;51.540;5.854;2023-03-23T07:24:22;68.92;54.89;90.21;;
75037;Laerm;64247;51.540;5.854;2023-03-23T07:26:53;66.30;53.13;90.62;;
75037;Laerm;64247;51.540;5.854;2023-03-23T07:28:54;66.05;54.44;83.74;;
75037;Laerm;64247;51.540;5.854;2023-03-23T07:31:00;63.72;55.75;84.55;;
75037;Laerm;64247;51.540;5.854;2023-03-23T07:33:08;61.06;52.20;81.60;;
75037;Laerm;64247;51.540;5.854;2023-03-23T07:35:10;59.35;51.31;87.01;;
75037;Laerm;64247;51.540;5.854;2023-03-23T07:37:23;58.67;50.10;82.84;;
75037;Laerm;64247;51.540;5.854;2023-03-23T07:39:25;57.90;51.49;73.57;;
75037;Laerm;64247;51.540;5.854;2023-03-23T07:41:29;59.20;51.44;68.75;;
75037;Laerm;64247;51.540;5.854;2023-03-23T07:43:32;58.09;52.65;82.08;;
75037;Laerm;64247;51.540;5.854;2023-03-23T07:46:02;58.90;51.71;73.55;;
75037;Laerm;64247;51.540;5.854;2023-03-23T07:48:22;63.13;53.31;75.72;;
75037;Laerm;64247;51.540;5.854;2023-03-23T07:50:23;61.87;54.34;76.64;;
75037;Laerm;64247;51.540;5.854;2023-03-23T07:52:29;64.51;52.59;80.02;;
75037;Laerm;64247;51.540;5.854;2023-03-23T07:54:32;64.20;54.54;88.54;;
75037;Laerm;64247;51.540;5.854;2023-03-23T07:56:38;66.36;55.27;87.96;;
75037;Laerm;64247;51.540;5.854;2023-03-23T07:58:49;62.89;55.26;85.86;;
75037;Laerm;64247;51.540;5.854;2023-03-23T08:00:52;67.00;55.14;93.70;;
75037;Laerm;64247;51.540;5.854;2023-03-23T08:02:57;63.20;55.17;86.70;;
75037;Laerm;64247;51.540;5.854;2023-03-23T08:05:19;65.96;56.36;85.08;;
75037;Laerm;64247;51.540;5.854;2023-03-23T08:08:02;75.22;56.48;92.67;;
75037;Laerm;64247;51.540;5.854;2023-03-23T08:10:29;82.56;65.42;99.36;;
75037;Laerm;64247;51.540;5.854;2023-03-23T08:12:54;77.65;64.17;93.13;;
75037;Laerm;64247;51.540;5.854;2023-03-23T08:15:19;75.73;61.48;88.33;;
75037;Laerm;64247;51.540;5.854;2023-03-23T08:17:44;71.68;59.85;82.16;;
75037;Laerm;64247;51.540;5.854;2023-03-23T08:20:12;63.36;54.89;81.36;;
75037;Laerm;64247;51.540;5.854;2023-03-23T08:22:31;64.38;53.35;79.02;;
75037;Laerm;64247;51.540;5.854;2023-03-23T08:24:44;59.05;52.44;67.59;;
75037;Laerm;64247;51.540;5.854;2023-03-23T08:27:07;59.41;52.08;66.48;;
75037;Laerm;64247;51.540;5.854;2023-03-23T08:29:35;62.09;52.28;72.49;;
75037;Laerm;64247;51.540;5.854;2023-03-23T08:31:57;61.13;54.44;68.58;;
75037;Laerm;64247;51.540;5.854;2023-03-23T08:34:21;61.76;52.84;73.89;;
75037;Laerm;64247;51.540;5.854;2023-03-23T08:37:02;63.13;53.63;72.80;;
75037;Laerm;64247;51.540;5.854;2023-03-23T08:39:23;61.74;50.35;72.18;;
75037;Laerm;64247;51.540;5.854;2023-03-23T08:41:49;62.22;50.85;72.00;;
75037;Laerm;64247;51.540;5.854;2023-03-23T08:43:55;59.51;51.90;70.32;;
75037;Laerm;64247;51.540;5.854;2023-03-23T08:46:16;63.70;54.57;74.95;;
75037;Laerm;64247;51.540;5.854;2023-03-23T08:48:51;65.33;53.77;76.42;;
75037;Laerm;64247;51.540;5.854;2023-03-23T08:51:10;71.78;53.87;83.78;;
75037;Laerm;64247;51.540;5.854;2023-03-23T08:53:41;63.20;53.25;76.14;;
75037;Laerm;64247;51.540;5.854;2023-03-23T08:56:15;65.49;55.28;77.65;;
75037;Laerm;64247;51.540;5.854;2023-03-23T08:58:36;67.55;54.92;79.94;;
75037;Laerm;64247;51.540;5.854;2023-03-23T09:00:57;63.98;53.63;81.42;;
75037;Laerm;64247;51.540;5.854;2023-03-23T09:03:16;64.70;52.41;74.17;;
75037;Laerm;64247;51.540;5.854;2023-03-23T09:05:36;63.39;52.06;77.83;;
75037;Laerm;64247;51.540;5.854;2023-03-23T09:07:58;62.65;51.94;78.59;;
75037;Laerm;64247;51.540;5.854;2023-03-23T09:09:59;64.25;52.20;81.01;;
75037;Laerm;64247;51.540;5.854;2023-03-23T09:12:00;62.24;53.83;86.66;;
75037;Laerm;64247;51.540;5.854;2023-03-23T09:14:03;61.33;52.88;81.07;;
75037;Laerm;64247;51.540;5.854;2023-03-23T09:16:06;61.44;50.42;72.78;;
75037;Laerm;64247;51.540;5.854;2023-03-23T09:18:08;61.07;50.09;68.22;;
75037;Laerm;64247;51.540;5.854;2023-03-23T09:20:11;59.35;53.45;67.83;;
75037;Laerm;64247;51.540;5.854;2023-03-23T09:22:12;60.71;53.01;68.16;;
75037;Laerm;64247;51.540;5.854;2023-03-23T09:24:13;57.58;49.02;65.60;;
75037;Laerm;64247;51.540;5.854;2023-03-23T09:26:14;62.07;51.95;72.14;;
75037;Laerm;64247;51.540;5.854;2023-03-23T09:28:16;59.55;50.57;68.74;;
75037;Laerm;64247;51.540;5.854;2023-03-23T09:30:16;62.42;51.84;75.53;;
75037;Laerm;64247;51.540;5.854;2023-03-23T09:32:19;59.29;53.21;69.55;;
75037;Laerm;64247;51.540;5.854;2023-03-23T09:34:23;64.37;51.55;83.05;;
75037;Laerm;64247;51.540;5.854;2023-03-23T09:36:25;63.32;53.88;83.41;;
75037;Laerm;64247;51.540;5.854;2023-03-23T09:38:32;66.21;55.77;86.54;;
75037;Laerm;64247;51.540;5.854;2023-03-23T09:47:34;66.89;55.18;90.83;;
75037;Laerm;64247;51.540;5.854;2023-03-23T09:50:48;66.81;52.55;87.32;;
75037;Laerm;64247;51.540;5.854;2023-03-23T09:52:18;65.33;55.75;85.85;;
75037;Laerm;64247;51.540;5.854;2023-03-23T09:54:39;65.12;55.71;78.68;;
75037;Laerm;64247;51.540;5.854;2023-03-23T09:56:41;68.42;58.34;90.46;;
75037;Laerm;64247;51.540;5.854;2023-03-23T09:59:14;65.88;55.21;87.61;;
75037;Laerm;64247;51.540;5.854;2023-03-23T10:01:40;65.92;48.58;80.76;;
75037;Laerm;64247;51.540;5.854;2023-03-23T10:03:45;61.11;52.84;75.27;;
75037;Laerm;64247;51.540;5.854;2023-03-23T10:05:52;63.80;52.68;77.69;;
75037;Laerm;64247;51.540;5.854;2023-03-23T10:07:54;61.64;53.32;69.05;;
75037;Laerm;64247;51.540;5.854;2023-03-23T10:09:59;61.29;53.97;69.78;;
75037;Laerm;64247;51.540;5.854;2023-03-23T10:12:42;59.91;51.54;71.54;;
75037;Laerm;64247;51.540;5.854;2023-03-23T10:15:36;62.35;52.19;75.33;;
75037;Laerm;64247;51.540;5.854;2023-03-23T10:18:04;62.72;50.32;73.53;;
75037;Laerm;64247;51.540;5.854;2023-03-23T10:20:37;65.52;50.96;78.20;;
75037;Laerm;64247;51.540;5.854;2023-03-23T10:29:21;64.17;50.90;74.85;;
75037;Laerm;64247;51.540;5.854;2023-03-23T10:31:32;60.91;51.22;69.37;;
75037;Laerm;64247;51.540;5.854;2023-03-23T10:33:58;60.84;50.38;76.77;;
75037;Laerm;64247;51.540;5.854;2023-03-23T10:39:12;66.06;55.24;77.80;;
75037;Laerm;64247;51.540;5.854;2023-03-23T10:41:19;57.57;50.98;66.01;;
75037;Laerm;64247;51.540;5.854;2023-03-23T10:43:21;55.20;48.77;65.12;;
75037;Laerm;64247;51.540;5.854;2023-03-23T10:45:28;60.22;50.38;74.16;;
75037;Laerm;64247;51.540;5.854;2023-03-23T10:47:40;61.02;50.68;71.84;;
75037;Laerm;64247;51.540;5.854;2023-03-23T10:52:36;65.21;53.51;75.57;;
75037;Laerm;64247;51.540;5.854;2023-03-23T10:54:51;60.79;49.74;69.54;;
75037;Laerm;64247;51.540;5.854;2023-03-23T10:56:53;62.53;50.86;73.65;;
75037;Laerm;64247;51.540;5.854;2023-03-23T10:58:55;62.46;51.63;78.00;;
75037;Laerm;64247;51.540;5.854;2023-03-23T11:00:58;58.14;51.19;67.40;;
75037;Laerm;64247;51.540;5.854;2023-03-23T11:03:58;61.24;51.75;70.24;;
75037;Laerm;64247;51.540;5.854;2023-03-23T11:06:06;61.43;51.39;72.69;;
75037;Laerm;64247;51.540;5.854;2023-03-23T11:08:18;58.38;49.95;71.18;;
75037;Laerm;64247;51.540;5.854;2023-03-23T11:10:42;62.91;49.08;73.93;;
75037;Laerm;64247;51.540;5.854;2023-03-23T11:12:47;60.20;51.89;71.12;;
75037;Laerm;64247;51.540;5.854;2023-03-23T11:17:22;62.44;50.52;72.95;;
75037;Laerm;64247;51.540;5.854;2023-03-23T11:19:31;61.26;50.73;72.95;;
75037;Laerm;64247;51.540;5.854;2023-03-23T11:21:32;61.33;52.19;71.55;;
75037;Laerm;64247;51.540;5.854;2023-03-23T11:23:37;61.73;50.08;70.89;;
75037;Laerm;64247;51.540;5.854;2023-03-23T11:26:22;57.81;50.06;69.83;;
75037;Laerm;64247;51.540;5.854;2023-03-23T11:28:42;59.96;50.73;69.35;;
75037;Laerm;64247;51.540;5.854;2023-03-23T11:30:44;60.07;50.03;73.33;;
75037;Laerm;64247;51.540;5.854;2023-03-23T11:32:46;60.64;51.32;77.59;;
75037;Laerm;64247;51.540;5.854;2023-03-23T11:35:03;59.59;50.44;71.89;;
75037;Laerm;64247;51.540;5.854;2023-03-23T11:37:32;59.44;48.70;71.43;;
75037;Laerm;64247;51.540;5.854;2023-03-23T11:42:21;59.98;48.31;74.27;;
75037;Laerm;64247;51.540;5.854;2023-03-23T11:44:30;61.45;50.86;75.44;;
75037;Laerm;64247;51.540;5.854;2023-03-23T11:46:44;59.96;49.15;74.44;;
75037;Laerm;64247;51.540;5.854;2023-03-23T11:51:56;63.20;49.70;75.94;;
75037;Laerm;64247;51.540;5.854;2023-03-23T11:54:43;63.33;51.07;73.96;;
75037;Laerm;64247;51.540;5.854;2023-03-23T11:56:47;63.94;48.58;73.38;;
75037;Laerm;64247;51.540;5.854;2023-03-23T11:58:49;64.56;51.97;77.31;;
75037;Laerm;64247;51.540;5.854;2023-03-23T12:01:54;60.61;50.27;70.90;;
75037;Laerm;64247;51.540;5.854;2023-03-23T12:26:36;60.30;50.78;73.01;;
75037;Laerm;64247;51.540;5.854;2023-03-23T12:36:11;60.71;52.22;73.09;;
75037;Laerm;64247;51.540;5.854;2023-03-23T12:44:12;65.16;49.68;76.17;;
75037;Laerm;64247;51.540;5.854;2023-03-23T12:50:17;67.83;48.98;81.86;;
75037;Laerm;64247;51.540;5.854;2023-03-23T12:52:28;65.30;48.73;81.81;;
75037;Laerm;64247;51.540;5.854;2023-03-23T12:54:41;69.47;52.64;84.30;;
75037;Laerm;64247;51.540;5.854;2023-03-23T12:57:05;67.18;52.62;79.33;;
75037;Laerm;64247;51.540;5.854;2023-03-23T13:06:42;70.05;49.96;84.02;;
75037;Laerm;64247;51.540;5.854;2023-03-23T13:11:55;66.10;52.84;81.65;;
75037;Laerm;64247;51.540;5.854;2023-03-23T13:14:29;61.86;51.32;75.74;;
75037;Laerm;64247;51.540;5.854;2023-03-23T13:23:38;59.13;52.11;69.63;;
75037;Laerm;64247;51.540;5.854;2023-03-23T13:26:04;63.99;52.34;78.90;;
75037;Laerm;64247;51.540;5.854;2023-03-23T13:28:16;57.80;50.34;70.19;;
75037;Laerm;64247;51.540;5.854;2023-03-23T13:30:22;57.37;50.32;67.50;;
75037;Laerm;64247;51.540;5.854;2023-03-23T13:32:39;61.23;49.53;78.18;;
75037;Laerm;64247;51.540;5.854;2023-03-23T13:34:41;65.30;51.08;80.02;;
75037;Laerm;64247;51.540;5.854;2023-03-23T13:36:59;64.88;52.50;80.32;;
75037;Laerm;64247;51.540;5.854;2023-03-23T13:39:15;61.86;51.19;74.27;;
75037;Laerm;64247;51.540;5.854;2023-03-23T13:41:20;55.82;49.29;70.72;;
75037;Laerm;64247;51.540;5.854;2023-03-23T13:43:37;63.32;50.54;76.23;;
75037;Laerm;64247;51.540;5.854;2023-03-23T13:45:47;64.44;52.34;74.06;;
75037;Laerm;64247;51.540;5.854;2023-03-23T13:47:49;68.20;49.60;81.55;;
75037;Laerm;64247;51.540;5.854;2023-03-23T13:50:08;57.95;50.80;67.95;;
75037;Laerm;64247;51.540;5.854;2023-03-23T13:52:46;60.05;49.73;69.81;;
75037;Laerm;64247;51.540;5.854;2023-03-23T13:54:44;62.48;50.92;73.57;;
75037;Laerm;64247;51.540;5.854;2023-03-23T13:59:56;57.39;48.34;69.09;;
75037;Laerm;64247;51.540;5.854;2023-03-23T14:02:40;61.33;49.44;74.76;;
75037;Laerm;64247;51.540;5.854;2023-03-23T14:04:49;63.45;49.25;91.68;;
75037;Laerm;64247;51.540;5.854;2023-03-23T14:06:52;62.28;49.29;73.65;;